Time;durP1;ratioP1;P1;durP2;ratioP2;P2;SDS_P1;SDS_P2;PMS_P1;PMS_P2;Temp;Humidity;BMP_temperature;BMP_pressure;BME280_temperature;BME280_humidity;BME280_pressure;Samples;Min_cycle;Max_cycle;Signal;HPM_P1;HPM_P2
2023/10/16 00:01:19;;;;;;;8.63;1.30;;;;;;;-149.70;100.00;78075.81;4990169;28;20128;-64
2023/10/16 00:03:47;;;;;;;8.32;1.17;;;;;;;-149.70;100.00;78065.63;4990466;28;20414;-64
2023/10/16 00:06:14;;;;;;;10.30;1.70;;;;;;;-149.70;100.00;78071.72;4990007;28;20046;-64
2023/10/16 00:08:47;;;;;;;7.65;1.23;;;;;;;-149.70;100.00;78067.66;4990746;28;20133;-64
2023/10/16 00:11:17;;;;;;;11.05;1.15;;;;;;;-149.70;100.00;78081.91;4990297;28;20069;-64
2023/10/16 00:13:47;;;;;;;12.30;1.60;;;;;;;-149.70;100.00;78079.88;4990668;28;20050;-63
2023/10/16 00:16:16;;;;;;;5.38;1.13;;;;;;;-149.70;100.00;78085.97;4989713;28;20046;-64
2023/10/16 00:18:43;;;;;;;8.88;1.42;;;;;;;-149.70;100.00;78092.06;5003359;28;20042;-64
2023/10/16 00:21:10;;;;;;;7.88;1.70;;;;;;;-149.70;100.00;78096.16;5007950;28;20114;-62
2023/10/16 00:23:39;;;;;;;11.18;2.15;;;;;;;-149.70;100.00;78108.34;5007372;28;20052;-60
2023/10/16 00:26:07;;;;;;;15.82;2.03;;;;;;;-149.70;100.00;78100.22;5007081;28;20042;-60
2023/10/16 00:28:34;;;;;;;10.70;1.55;;;;;;;-149.70;100.00;78106.31;5007622;28;20046;-61
2023/10/16 00:31:02;;;;;;;10.55;1.73;;;;;;;-149.70;100.00;78106.31;5007023;28;20490;-59
2023/10/16 00:33:31;;;;;;;10.05;1.50;;;;;;;-149.70;100.00;78102.25;5007244;28;20042;-61
2023/10/16 00:36:00;;;;;;;9.27;1.70;;;;;;;-149.70;100.00;78098.19;5010727;28;20106;-60
2023/10/16 00:38:26;;;;;;;6.60;1.65;;;;;;;-149.70;100.00;78104.28;5010872;28;20057;-61
2023/10/16 00:41:15;;;;;;;8.05;1.33;;;;;;;-149.70;100.00;78102.25;5011228;28;20073;-61
2023/10/16 00:43:43;;;;;;;12.20;2.00;;;;;;;-149.70;100.00;78110.38;5012150;28;20042;-59
2023/10/16 00:46:36;;;;;;;9.70;1.83;;;;;;;-149.70;100.00;78110.38;5012618;28;20038;-60
2023/10/16 00:49:06;;;;;;;15.05;2.15;;;;;;;-149.70;100.00;78106.31;5012066;28;20062;-61
2023/10/16 00:51:36;;;;;;;8.23;1.08;;;;;;;-149.70;100.00;78110.38;5012101;28;20069;-60
2023/10/16 00:54:16;;;;;;;6.60;1.52;;;;;;;-149.70;100.00;78106.31;5012595;28;20845;-60
2023/10/16 00:56:53;;;;;;;6.38;1.73;;;;;;;-149.70;100.00;78110.38;5012521;28;20107;-61
2023/10/16 00:59:23;;;;;;;15.27;3.30;;;;;;;-149.70;100.00;78110.38;5012934;28;20050;-62
2023/10/16 01:04:36;;;;;;;11.23;1.48;;;;;;;-149.70;100.00;78106.31;5013311;28;20061;-61
2023/10/16 01:07:05;;;;;;;8.55;1.35;;;;;;;-149.70;100.00;78120.56;4996352;28;20057;-61
2023/10/16 01:09:35;;;;;;;13.00;1.60;;;;;;;-149.70;100.00;78110.38;5013330;28;20058;-61
2023/10/16 01:12:06;;;;;;;7.75;1.25;;;;;;;-149.70;100.00;78122.59;5013470;28;20118;-63
2023/10/16 01:14:35;;;;;;;12.63;1.80;;;;;;;-149.70;100.00;78126.66;5013029;28;20046;-61
2023/10/16 01:17:03;;;;;;;11.18;1.20;;;;;;;-149.70;100.00;78130.72;5013041;28;20046;-62
2023/10/16 01:19:29;;;;;;;7.47;1.77;;;;;;;-149.70;100.00;78126.66;5013428;28;20081;-60
2023/10/16 01:21:58;;;;;;;18.30;2.30;;;;;;;-149.70;100.00;78122.59;5013447;28;20042;-61
2023/10/16 01:24:27;;;;;;;7.38;1.60;;;;;;;-149.70;100.00;78124.63;5013070;28;20125;-60
2023/10/16 01:27:06;;;;;;;14.00;1.45;;;;;;;-149.70;100.00;78124.63;5012924;28;20051;-60
2023/10/16 01:29:33;;;;;;;9.32;1.50;;;;;;;-149.70;100.00;78134.78;5012511;28;20106;-61
2023/10/16 01:32:00;;;;;;;8.25;1.88;;;;;;;-149.70;100.00;78130.72;5013746;28;20054;-62
2023/10/16 01:34:31;;;;;;;10.57;1.30;;;;;;;-149.70;100.00;78124.63;5012616;28;20054;-61
2023/10/16 01:37:07;;;;;;;11.52;1.40;;;;;;;-149.70;100.00;78136.81;5013040;28;20051;-61
2023/10/16 01:39:49;;;;;;;5.93;1.25;;;;;;;-149.70;100.00;78134.78;5013409;28;20105;-61
2023/10/16 01:42:18;;;;;;;14.32;1.52;;;;;;;-149.70;100.00;78138.84;5011919;28;20046;-62
2023/10/16 01:44:46;;;;;;;10.00;1.88;;;;;;;-149.70;100.00;78134.78;5009131;28;20046;-61
2023/10/16 01:47:15;;;;;;;10.52;1.85;;;;;;;-149.70;100.00;78132.75;5010567;28;20042;-63
2023/10/16 01:49:42;;;;;;;10.20;1.92;;;;;;;-149.70;100.00;78140.91;5010991;28;20056;-61
2023/10/16 01:52:12;;;;;;;9.38;1.50;;;;;;;-149.70;100.00;78140.91;5010373;28;20050;-61
2023/10/16 02:14:41;;;;;;;9.15;1.48;;;;;;;-149.70;100.00;78157.16;6055334;23;19920;31
2023/10/16 02:17:18;;;;;;;5.72;1.20;;;;;;;-149.70;100.00;78159.19;4952362;28;20047;-64
2023/10/16 02:19:45;;;;;;;5.97;1.77;;;;;;;-149.70;100.00;78159.19;4953118;28;20058;-65
2023/10/16 02:22:12;;;;;;;12.15;1.42;;;;;;;-149.70;100.00;78161.22;4953949;28;20047;-65
2023/10/16 02:24:40;;;;;;;6.25;1.20;;;;;;;-149.70;100.00;78171.41;4953665;28;20047;-65
2023/10/16 02:27:12;;;;;;;11.98;2.05;;;;;;;-149.70;100.00;78173.44;4953058;28;20051;-65
2023/10/16 02:29:45;;;;;;;10.55;1.55;;;;;;;-149.70;100.00;78167.34;4953143;28;20447;-65
2023/10/16 02:32:13;;;;;;;9.70;1.27;;;;;;;-149.70;100.00;78171.41;4952631;28;20063;-66
2023/10/16 02:34:41;;;;;;;10.05;1.60;;;;;;;-149.70;100.00;78169.38;4953630;28;20047;-65
2023/10/16 02:37:14;;;;;;;10.85;1.70;;;;;;;-149.70;100.00;78179.53;4953401;28;20468;-65
2023/10/16 02:39:50;;;;;;;10.20;1.85;;;;;;;-149.70;100.00;78171.41;4953464;28;20051;-65
2023/10/16 02:42:19;;;;;;;11.15;1.80;;;;;;;-149.70;100.00;78173.44;4952558;28;20438;-64
2023/10/16 02:44:46;;;;;;;8.02;1.50;;;;;;;-149.70;100.00;78183.63;4952280;28;20058;-64
2023/10/16 02:47:19;;;;;;;14.70;2.55;;;;;;;-149.70;100.00;78181.56;4952796;28;20047;-65
2023/10/16 02:49:48;;;;;;;10.00;1.38;;;;;;;-149.70;100.00;78185.66;4952924;28;20415;-65
2023/10/16 02:52:16;;;;;;;8.98;2.15;;;;;;;-149.70;100.00;78187.69;4952900;28;20047;-65
2023/10/16 02:54:46;;;;;;;8.95;1.95;;;;;;;-149.70;100.00;78191.75;4951946;28;20419;-65
2023/10/16 02:57:14;;;;;;;6.03;1.20;;;;;;;-149.70;100.00;78195.81;4951578;28;20057;-65
2023/10/16 02:59:45;;;;;;;12.07;1.70;;;;;;;-149.70;100.00;78195.81;4951951;28;20388;-65
2023/10/16 03:02:22;;;;;;;10.40;1.83;;;;;;;-149.70;100.00;78199.88;4952417;28;20047;-65
2023/10/16 03:04:51;;;;;;;12.02;2.03;;;;;;;-149.70;100.00;78187.69;4952068;28;20109;-64
2023/10/16 03:07:22;;;;;;;8.85;2.10;;;;;;;-149.70;100.00;78195.81;4952551;28;20055;-64
2023/10/16 03:09:52;;;;;;;13.90;2.50;;;;;;;-149.70;100.00;78203.94;4952411;28;20054;-64
2023/10/16 03:12:20;;;;;;;8.45;1.60;;;;;;;-149.70;100.00;78206.00;4952184;28;20062;-64
2023/10/16 03:15:01;;;;;;;8.57;1.73;;;;;;;-149.70;100.00;78203.94;4951744;28;20130;-64
2023/10/16 03:17:36;;;;;;;12.13;1.80;;;;;;;-149.70;100.00;78212.09;4971574;28;20054;-64
2023/10/16 03:20:35;;;;;;;11.45;1.65;;;;;;;-149.70;100.00;78210.06;4971656;28;20055;-65
2023/10/16 03:22:50;;;;;;;12.13;2.80;;;;;;;-149.70;100.00;78216.16;4970844;28;20034;-65
2023/10/16 03:25:51;;;;;;;10.55;2.58;;;;;;;-149.70;100.00;78220.22;4971265;28;20050;-65
2023/10/16 03:28:14;;;;;;;10.30;2.30;;;;;;;-149.70;100.00;78220.22;4969358;28;20129;-65
2023/10/16 03:30:42;;;;;;;7.80;1.90;;;;;;;-149.70;100.00;78214.13;4971856;28;20123;-65
2023/10/16 03:33:13;;;;;;;16.20;2.25;;;;;;;-149.70;100.00;78228.38;4971589;28;20043;-65
2023/10/16 03:35:47;;;;;;;18.42;2.17;;;;;;;-149.70;100.00;78214.13;4971885;28;20050;-65
2023/10/16 03:38:27;;;;;;;9.88;1.95;;;;;;;-149.70;100.00;78203.94;4970436;28;20050;-64
2023/10/16 03:40:56;;;;;;;7.75;1.50;;;;;;;-149.70;100.00;78222.25;4971255;28;20133;-65
2023/10/16 03:43:23;;;;;;;7.93;1.55;;;;;;;-149.70;100.00;78222.25;4971266;28;20110;-64
2023/10/16 03:45:50;;;;;;;16.05;1.92;;;;;;;-149.70;100.00;78220.22;4970964;28;20078;-65
2023/10/16 03:48:17;;;;;;;9.23;1.60;;;;;;;-149.70;100.00;78218.19;4971274;28;20414;-65
2023/10/16 03:50:44;;;;;;;6.18;1.35;;;;;;;-149.70;100.00;78224.28;4971039;28;20046;-64
2023/10/16 03:53:13;;;;;;;8.80;1.77;;;;;;;-149.70;100.00;78222.25;4971579;28;20105;-65
2023/10/16 03:55:49;;;;;;;13.38;1.40;;;;;;;-149.70;100.00;78228.38;4971378;28;20042;-65
2023/10/16 03:58:19;;;;;;;7.32;1.67;;;;;;;-149.70;100.00;78214.13;4970585;28;20056;-65
2023/10/16 04:00:56;;;;;;;7.63;1.70;;;;;;;-149.70;100.00;78218.19;4970817;28;20097;-65
2023/10/16 04:03:25;;;;;;;11.68;1.35;;;;;;;-149.70;100.00;78210.06;4969587;28;20051;-65
2023/10/16 04:05:53;;;;;;;11.32;2.33;;;;;;;-149.70;100.00;78216.16;4971023;28;20074;-65
2023/10/16 04:08:21;;;;;;;8.77;1.98;;;;;;;-149.70;100.00;78208.03;4970829;28;20054;-65
2023/10/16 04:10:49;;;;;;;12.02;2.33;;;;;;;-149.70;100.00;78212.09;4971185;28;20050;-64
2023/10/16 04:13:25;;;;;;;8.52;1.52;;;;;;;-149.70;100.00;78197.84;4970737;28;20415;-64
2023/10/16 04:18:33;;;;;;;14.57;2.00;;;;;;;-149.70;100.00;78197.84;4975343;28;20105;-65
2023/10/16 04:50:30;;;;;;;7.90;2.13;;;;;;;-149.70;100.00;78220.22;4990640;28;20075;-63
2023/10/16 04:53:25;;;;;;;11.20;2.13;;;;;;;-149.70;100.00;78226.34;4990191;28;20081;-60
2023/10/16 05:03:35;;;;;;;14.52;2.05;;;;;;;-149.70;100.00;78234.47;4991519;28;20065;-61
2023/10/16 05:11:36;;;;;;;8.55;1.88;;;;;;;-149.70;100.00;78240.56;4990876;28;20046;-62
2023/10/16 05:14:22;;;;;;;10.10;1.80;;;;;;;-149.70;100.00;78250.75;4992203;28;24570;-61
2023/10/16 05:22:03;;;;;;;7.82;1.60;;;;;;;-149.70;100.00;78244.63;4993544;28;20062;-62
2023/10/16 06:14:20;;;;;;;12.05;1.90;;;;;;;-149.70;100.00;78248.72;4993930;28;20050;-61
2023/10/16 06:16:53;;;;;;;10.50;2.20;;;;;;;-149.70;100.00;78244.63;4994011;28;20051;-62
2023/10/16 06:19:22;;;;;;;15.13;1.90;;;;;;;-149.70;100.00;78240.56;4994080;28;20066;-62
2023/10/16 06:21:56;;;;;;;10.35;1.77;;;;;;;-149.70;100.00;78238.53;4992903;28;20057;-62
2023/10/16 06:24:25;;;;;;;11.32;2.17;;;;;;;-149.70;100.00;78228.38;4992377;28;20050;-62
2023/10/16 06:26:56;;;;;;;11.63;2.60;;;;;;;-149.70;100.00;78228.38;4993522;28;20047;-62
2023/10/16 06:29:34;;;;;;;20.10;2.25;;;;;;;-149.70;100.00;78240.56;4994318;28;20046;-62
2023/10/16 06:32:07;;;;;;;10.43;2.33;;;;;;;-149.70;100.00;78226.34;4994108;28;20070;-62
2023/10/16 06:34:35;;;;;;;14.85;2.70;;;;;;;-149.70;100.00;78232.44;4994405;28;20026;-62
2023/10/16 06:37:05;;;;;;;8.23;2.85;;;;;;;-149.70;100.00;78240.56;4983296;28;20071;-62
2023/10/16 06:39:35;;;;;;;13.13;2.50;;;;;;;-149.70;100.00;78240.56;4975570;29;20128;-61
2023/10/16 06:42:03;;;;;;;19.23;3.25;;;;;;;-149.70;100.00;78240.56;4975309;29;20111;-65
2023/10/16 06:44:33;;;;;;;13.75;2.30;;;;;;;-149.70;100.00;78228.38;4974366;29;20055;-66
2023/10/16 06:47:00;;;;;;;15.38;2.47;;;;;;;-149.70;100.00;78216.16;4974848;29;20051;-64
2023/10/16 06:49:35;;;;;;;11.35;2.38;;;;;;;-149.70;100.00;78206.00;4974139;29;20035;-65
2023/10/16 06:52:06;;;;;;;13.85;2.47;;;;;;;-149.70;100.00;78203.94;4973814;29;20467;-66
2023/10/16 06:54:37;;;;;;;14.70;1.90;;;;;;;-149.70;100.00;78208.03;4972889;29;20051;-65
2023/10/16 06:57:13;;;;;;;19.40;5.30;;;;;;;-149.70;100.00;78199.88;4974052;29;20043;-65
2023/10/16 06:59:41;;;;;;;27.25;7.60;;;;;;;-149.70;100.00;78206.00;4974138;29;20039;-64
2023/10/16 07:02:15;;;;;;;9.90;2.33;;;;;;;-149.70;100.00;78187.69;4972812;29;20070;-65
2023/10/16 07:04:44;;;;;;;18.50;2.88;;;;;;;-149.70;100.00;78179.53;4972963;29;20047;-64
2023/10/16 07:07:22;;;;;;;18.33;2.85;;;;;;;-149.70;100.00;78161.22;4972106;29;20094;-66
2023/10/16 07:09:49;;;;;;;14.93;2.55;;;;;;;-149.70;100.00;78161.22;4973036;29;20051;-65
2023/10/16 07:12:17;;;;;;;10.63;2.42;;;;;;;-149.70;100.00;78165.31;4973433;29;20047;-66
2023/10/16 07:15:01;;;;;;;13.20;2.25;;;;;;;-149.70;100.00;78151.06;4971680;29;20047;-65
2023/10/16 07:17:28;;;;;;;13.35;2.17;;;;;;;-149.70;100.00;78134.78;4972048;29;20065;-65
2023/10/16 07:19:58;;;;;;;11.98;1.98;;;;;;;-149.70;100.00;78130.72;4972433;29;20058;-66
2023/10/16 07:22:32;;;;;;;13.13;2.63;;;;;;;-149.70;100.00;78126.66;4964612;29;20055;-66
2023/10/16 07:25:23;;;;;;;11.20;2.60;;;;;;;-149.70;100.00;78118.53;4973381;29;20043;-65
2023/10/16 07:28:00;;;;;;;21.60;2.38;;;;;;;-149.70;100.00;78114.44;4971280;29;20043;-66
2023/10/16 07:30:27;;;;;;;12.02;2.42;;;;;;;-149.70;100.00;78079.88;4962966;29;20051;-65
2023/10/16 07:32:55;;;;;;;7.53;2.67;;;;;;;-149.70;100.00;78071.72;4971382;29;20110;-64
2023/10/16 07:35:23;;;;;;;7.97;1.80;;;;;;;-149.70;100.00;78041.22;4970620;29;20080;-66
2023/10/16 07:37:53;;;;;;;10.38;2.50;;;;;;;-149.70;100.00;78018.84;4970952;29;20043;-66
2023/10/16 07:40:21;;;;;;;9.43;2.20;;;;;;;-149.70;100.00;77978.16;4971376;29;20043;-65
2023/10/16 07:42:48;;;;;;;11.88;2.67;;;;;;;-149.70;100.00;77990.38;4971992;28;20054;-64
2023/10/16 07:45:15;;;;;;;13.90;2.30;;;;;;;-149.70;100.00;77955.78;4971068;29;20106;-68
2023/10/16 07:47:44;;;;;;;10.93;2.60;;;;;;;-149.70;100.00;77937.47;4971591;29;20050;-64
2023/10/16 07:50:11;;;;;;;14.02;2.65;;;;;;;-149.70;100.00;77870.34;4971409;29;20043;-66
2023/10/16 07:52:41;;;;;;;10.00;2.33;;;;;;;-149.70;100.00;77819.50;4970581;29;20047;-67
2023/10/16 07:55:18;;;;;;;8.15;2.03;;;;;;;-28.92;100.00;95815.44;4970404;29;20047;-64
2023/10/16 07:57:47;;;;;;;10.13;2.15;;;;;;;-23.33;100.00;96670.63;4971034;29;20043;-67
2023/10/16 08:00:14;;;;;;;11.80;2.22;;;;;;;-15.14;100.00;98011.84;4969703;29;20047;-69
2023/10/16 08:02:47;;;;;;;14.73;3.15;;;;;;;-4.38;100.00;99728.56;4970044;29;20065;-66
2023/10/16 08:05:17;;;;;;;11.75;2.20;;;;;;;-2.25;100.00;100079.56;4969400;29;20047;-70
2023/10/16 08:07:47;;;;;;;13.07;2.65;;;;;;;-0.66;100.00;100295.81;4969284;29;20047;-67
2023/10/16 08:10:59;;;;;;;11.07;1.90;;;;;;;0.55;100.00;100447.91;4968622;29;20118;-69
2023/10/16 08:13:11;;;;;;;12.32;2.35;;;;;;;1.84;100.00;100667.28;4961549;29;20062;-66
2023/10/16 08:15:47;;;;;;;12.07;2.03;;;;;;;2.41;100.00;100763.00;4968913;29;20075;-64
2023/10/16 08:18:15;;;;;;;12.35;2.85;;;;;;;2.81;100.00;100776.09;4951880;29;20043;-69
2023/10/16 08:21:00;;;;;;;9.98;2.10;;;;;;;2.65;100.00;100813.44;4969222;29;20051;-64
2023/10/16 08:23:34;;;;;;;13.02;2.42;;;;;;;2.93;100.00;100818.56;4968253;29;20111;-65
2023/10/16 08:26:14;;;;;;;10.95;1.83;;;;;;;3.06;100.00;100845.91;4967428;29;20047;-64
2023/10/16 08:28:47;;;;;;;14.35;2.28;;;;;;;3.08;100.00;100851.97;4967373;29;20487;-65
2023/10/16 08:31:22;;;;;;;9.80;2.47;;;;;;;3.26;100.00;100861.25;4968672;29;20055;-65
2023/10/16 08:33:50;;;;;;;11.07;2.00;;;;;;;3.22;100.00;100862.44;4965810;29;20058;-66
2023/10/16 08:36:20;;;;;;;8.35;2.20;;;;;;;3.91;100.00;100899.88;4972550;28;20055;-65
2023/10/16 08:38:54;;;;;;;9.35;1.85;;;;;;;4.37;100.00;100956.69;4986447;28;20105;-64
2023/10/16 08:41:30;;;;;;;9.38;1.60;;;;;;;4.75;100.00;100969.78;4986501;28;20061;-67
2023/10/16 08:44:05;;;;;;;7.57;1.77;;;;;;;5.68;100.00;100977.63;4985274;28;20043;-65
2023/10/16 08:46:44;;;;;;;16.27;2.83;;;;;;;6.02;100.00;100994.41;4985801;28;20051;-64
2023/10/16 08:49:12;;;;;;;5.85;1.65;;;;;;;5.72;100.00;100969.28;4985611;28;20043;-67
2023/10/16 08:51:40;;;;;;;8.10;1.90;;;;;;;5.79;100.00;100974.94;4970434;28;20050;-65
2023/10/16 08:54:35;;;;;;;11.48;1.77;;;;;;;6.47;100.00;100978.34;4985162;28;20042;-65
2023/10/16 08:56:55;;;;;;;9.38;1.40;;;;;;;6.78;100.00;100959.78;4988588;28;20050;-66
2023/10/16 08:59:27;;;;;;;5.80;1.52;;;;;;;6.66;100.00;100957.16;4988196;28;20042;-68
2023/10/16 09:01:55;;;;;;;8.50;1.90;;;;;;;6.81;100.00;100954.19;4988540;28;20046;-65
2023/10/16 09:04:25;;;;;;;5.97;1.73;;;;;;;7.89;100.00;100959.91;4988733;28;20106;-66
2023/10/16 09:06:53;;;;;;;;;;;;;;;7.63;100.00;100951.50;4988304;28;20499;-66
2023/10/16 09:09:20;;;;;;;14.50;1.83;;;;;;;8.48;100.00;100959.00;4988001;28;19922;-65
2023/10/16 09:11:49;;;;;;;12.93;2.05;;;;;;;8.85;92.72;100966.28;4987109;28;20050;-65
2023/10/16 09:14:20;;;;;;;9.43;1.77;;;;;;;8.56;90.08;100961.78;4988447;28;20051;-67
2023/10/16 09:16:51;;;;;;;7.78;1.92;;;;;;;7.46;100.00;100955.63;4986546;28;20107;-65
2023/10/16 09:19:19;;;;;;;7.55;1.65;;;;;;;7.40;100.00;100945.53;4987052;28;20120;-66
2023/10/16 09:21:52;;;;;;;7.38;1.50;;;;;;;8.11;100.00;100956.97;4988153;28;20046;-65
2023/10/16 09:24:20;;;;;;;4.88;1.70;;;;;;;9.37;89.54;100950.69;4987791;28;20175;-65
2023/10/16 09:26:47;;;;;;;7.38;1.73;;;;;;;9.97;77.39;100942.22;4988152;28;20046;-65
2023/10/16 09:29:20;;;;;;;4.25;1.60;;;;;;;11.26;70.63;100946.16;4987490;28;20054;-64
2023/10/16 09:31:48;;;;;;;8.43;1.75;;;;;;;11.72;66.57;100952.09;4986901;28;20066;-64
2023/10/16 09:34:19;;;;;;;9.07;2.10;;;;;;;11.61;64.10;100939.78;4987271;28;20096;-66
2023/10/16 09:36:49;;;;;;;16.33;1.80;;;;;;;11.23;65.16;100950.00;4976363;28;20054;-66
2023/10/16 09:39:19;;;;;;;9.52;2.17;;;;;;;10.99;63.58;100942.63;4966470;29;20098;-66
2023/10/16 09:41:59;;;;;;;6.25;1.85;;;;;;;11.25;63.31;100954.38;4958470;29;20047;-65
2023/10/16 09:44:38;;;;;;;5.68;1.58;;;;;;;11.24;63.92;100942.81;4958517;29;20127;-65
2023/10/16 09:47:28;;;;;;;7.43;1.65;;;;;;;11.41;64.63;100954.44;4965286;29;20043;-65
2023/10/16 09:50:00;;;;;;;8.68;2.22;;;;;;;10.45;64.20;100949.91;4966773;29;20049;-64
2023/10/16 09:52:33;;;;;;;8.77;1.50;;;;;;;9.36;67.79;100958.84;4966027;29;20058;-66
2023/10/16 09:55:00;;;;;;;8.48;1.60;;;;;;;9.27;69.89;100956.09;4967164;29;20126;-65
2023/10/16 09:57:30;;;;;;;8.52;1.48;;;;;;;8.54;74.37;100952.25;4966687;29;20086;-65
2023/10/16 10:02:51;;;;;;;4.28;1.50;;;;;;;8.37;90.80;100956.47;4967183;29;20279;-64
2023/10/16 10:05:22;;;;;;;7.53;1.67;;;;;;;9.22;79.72;100952.09;4966636;29;20122;-66
2023/10/16 10:07:58;;;;;;;7.55;1.50;;;;;;;10.17;71.30;100945.59;4965870;28;20047;-63
2023/10/16 10:13:15;;;;;;;3.83;1.25;;;;;;;11.47;61.26;100959.19;4966221;29;20103;-66
2023/10/16 10:15:57;;;;;;;7.88;1.70;;;;;;;10.34;64.81;100949.25;4965467;29;20043;-64
2023/10/16 10:19:04;;;;;;;11.38;2.30;;;;;;;9.12;69.33;100944.09;4965430;29;20051;-65
2023/10/16 10:21:37;;;;;;;7.78;1.65;;;;;;;8.01;81.67;100950.78;4955872;29;20047;-66
2023/10/16 10:24:15;;;;;;;12.98;2.03;;;;;;;8.90;83.29;100947.13;4965717;29;20043;-65
2023/10/16 10:26:48;;;;;;;6.45;1.58;;;;;;;9.80;73.98;100951.91;4965711;29;20047;-65
2023/10/16 10:29:16;;;;;;;5.40;1.48;;;;;;;10.43;70.34;100948.34;4965788;29;20492;-67
2023/10/16 10:31:47;;;;;;;5.75;1.70;;;;;;;11.03;63.22;100958.41;4965005;29;20066;-70
2023/10/16 10:34:23;;;;;;;9.85;1.65;;;;;;;10.02;65.15;100958.66;4966306;29;20051;-70
2023/10/16 10:36:50;;;;;;;9.55;1.60;;;;;;;10.53;67.37;100948.31;4976172;28;20523;-65
2023/10/16 10:39:21;;;;;;;8.88;1.63;;;;;;;11.25;63.54;100955.22;4985468;28;20078;-66
2023/10/16 10:41:55;;;;;;;6.35;1.50;;;;;;;11.66;61.08;100952.78;4984392;28;20054;-67
2023/10/16 10:44:32;;;;;;;13.60;5.82;;;;;;;11.53;60.24;100942.44;4983297;28;20570;-65
2023/10/16 10:47:04;;;;;;;13.02;4.50;;;;;;;11.35;61.21;100947.88;4982708;28;20101;-64
2023/10/16 10:49:35;;;;;;;7.07;2.10;;;;;;;11.59;58.81;100952.53;4982939;28;20050;-65
2023/10/16 10:52:05;;;;;;;7.03;2.28;;;;;;;10.52;61.53;100947.47;4983888;28;20059;-64
2023/10/16 10:54:31;;;;;;;6.90;1.80;;;;;;;10.42;64.60;100949.38;4983793;28;20057;-66
2023/10/16 10:57:07;;;;;;;5.97;1.83;;;;;;;9.93;64.69;100947.03;4984121;28;20047;-65
2023/10/16 10:59:41;;;;;;;5.18;1.27;;;;;;;9.65;66.86;100948.03;4983845;28;20059;-65
2023/10/16 11:04:54;;;;;;;7.78;1.60;;;;;;;7.59;77.80;100950.06;4983540;28;20046;-65
2023/10/16 11:07:59;;;;;;;8.40;1.38;;;;;;;6.74;92.00;100953.84;4983840;28;20074;-65
2023/10/16 11:10:25;;;;;;;9.85;1.73;;;;;;;6.84;100.00;100943.22;4983566;28;20049;-64
2023/10/16 11:13:03;;;;;;;9.25;1.95;;;;;;;6.68;100.00;100935.69;4966179;28;20051;-65
2023/10/16 11:15:30;;;;;;;8.68;1.27;;;;;;;7.12;100.00;100937.25;4959106;28;20434;-65
2023/10/16 11:18:05;;;;;;;14.10;1.25;;;;;;;7.55;100.00;100930.81;4980304;28;20419;-64
2023/10/16 11:20:36;;;;;;;8.13;1.40;;;;;;;7.61;94.09;100932.09;4983512;28;20106;-65
2023/10/16 11:23:13;;;;;;;6.55;1.13;;;;;;;7.47;93.85;100930.66;4982086;28;20057;-65
2023/10/16 11:25:44;;;;;;;8.75;1.50;;;;;;;8.08;92.50;100924.34;4983433;28;20057;-64
2023/10/16 11:28:17;;;;;;;4.75;1.13;;;;;;;8.74;82.27;100934.31;4981967;28;20427;-64
2023/10/16 11:30:45;;;;;;;6.63;1.67;;;;;;;8.77;78.79;100929.53;4981961;28;20571;-64
2023/10/16 11:33:12;;;;;;;7.25;1.40;;;;;;;8.11;78.24;100930.25;4982624;28;20049;-66
2023/10/16 11:35:46;;;;;;;5.43;1.65;;;;;;;8.32;78.14;100935.47;4981668;28;20062;-65
2023/10/16 11:38:28;;;;;;;8.25;1.48;;;;;;;8.50;78.08;100935.59;4963226;29;20562;-65
2023/10/16 11:41:24;;;;;;;7.25;1.20;;;;;;;8.32;79.60;100926.63;4952207;29;20051;-66
2023/10/16 11:43:51;;;;;;;8.75;1.63;;;;;;;8.49;80.54;100933.94;4962944;29;20094;-64
2023/10/16 11:46:44;;;;;;;5.43;1.20;;;;;;;8.03;81.94;100929.28;4962522;29;20054;-64
2023/10/16 11:51:57;;;;;;;6.50;1.58;;;;;;;7.99;83.72;100926.03;4964227;29;20039;-64
2023/10/16 11:54:28;;;;;;;11.68;2.08;;;;;;;7.75;86.10;100914.84;4962933;29;20078;-66
2023/10/16 11:56:59;;;;;;;8.68;1.30;;;;;;;7.66;88.82;100914.69;4964103;29;20058;-65
2023/10/16 11:59:28;;;;;;;3.80;0.95;;;;;;;7.88;85.05;100919.00;4963402;29;20047;-65
2023/10/16 12:02:10;;;;;;;5.45;1.55;;;;;;;8.22;80.62;100915.06;4962714;29;20055;-65
2023/10/16 12:04:40;;;;;;;4.55;1.40;;;;;;;8.93;78.01;100914.72;4962525;29;20054;-64
2023/10/16 12:07:07;;;;;;;3.97;1.05;;;;;;;9.61;73.42;100917.16;4962829;29;20050;-65
2023/10/16 12:09:40;;;;;;;6.78;0.98;;;;;;;10.16;68.60;100919.78;4962476;29;20062;-65
2023/10/16 12:12:07;;;;;;;7.22;1.23;;;;;;;9.55;68.66;100922.13;4963834;29;20047;-66
2023/10/16 12:14:38;;;;;;;9.82;1.40;;;;;;;9.32;70.42;100916.31;4958366;29;21838;-65
2023/10/16 12:17:11;;;;;;;3.17;0.97;;;;;;;8.72;73.47;100912.25;4940921;29;20500;-65
2023/10/16 14:29:48;;;;;;;7.75;1.92;;;;;;;4.67;100.00;100861.41;5359654;23;20062;-69
2023/10/16 14:32:15;;;;;;;12.50;1.88;;;;;;;4.73;100.00;100860.94;4952360;29;20050;-68
2023/10/16 14:34:42;;;;;;;4.50;1.10;;;;;;;4.58;100.00;100857.66;4953383;29;20134;-68
2023/10/16 14:37:08;;;;;;;7.13;1.30;;;;;;;4.47;100.00;100862.09;4952124;29;20440;-68
2023/10/16 14:39:35;;;;;;;5.80;1.13;;;;;;;4.54;100.00;100865.97;4951999;29;20392;-68
2023/10/16 14:42:05;;;;;;;5.63;1.40;;;;;;;4.55;100.00;100863.19;4952216;29;20134;-68
2023/10/16 14:44:32;;;;;;;5.75;1.25;;;;;;;4.54;100.00;100865.97;4952898;29;20055;-68
2023/10/16 14:46:59;;;;;;;3.97;1.17;;;;;;;4.53;100.00;100858.97;4952105;29;20051;-68
2023/10/16 14:49:26;;;;;;;2.97;0.93;;;;;;;4.45;100.00;100854.25;4951850;29;20481;-68
2023/10/16 14:51:54;;;;;;;18.48;6.43;;;;;;;4.55;100.00;100857.03;4935623;29;20528;-67
2023/10/16 14:54:22;;;;;;;17.08;5.35;;;;;;;4.33;100.00;100857.81;4951202;28;20083;-68
2023/10/16 14:56:51;;;;;;;6.13;1.67;;;;;;;4.35;100.00;100853.25;4935333;29;20059;-68
2023/10/16 14:59:30;;;;;;;8.00;1.48;;;;;;;4.45;100.00;100867.53;4952438;29;20193;-68
2023/10/16 15:01:58;;;;;;;4.97;1.58;;;;;;;4.50;100.00;100854.75;4951474;29;20054;-68
2023/10/16 15:04:25;;;;;;;4.05;1.17;;;;;;;4.48;100.00;100850.50;4952014;29;20071;-68
2023/10/16 15:06:53;;;;;;;10.80;4.95;;;;;;;4.45;100.00;100850.72;4951588;29;20059;-68
2023/10/16 15:09:24;;;;;;;19.65;7.95;;;;;;;4.41;100.00;100852.78;4951764;29;20055;-68
2023/10/16 15:11:51;;;;;;;6.15;1.60;;;;;;;4.24;100.00;100851.41;4952150;29;20061;-68
2023/10/16 15:14:18;;;;;;;5.45;1.08;;;;;;;4.06;100.00;100856.25;4951089;29;20067;-68
2023/10/16 15:16:44;;;;;;;4.38;1.05;;;;;;;4.04;100.00;100855.53;4952073;29;20447;-68
2023/10/16 15:19:11;;;;;;;4.40;1.00;;;;;;;3.84;100.00;100854.38;4952326;29;20051;-68
2023/10/16 15:21:40;;;;;;;7.65;1.58;;;;;;;3.78;100.00;100849.50;4951642;29;20051;-68
2023/10/16 15:24:09;;;;;;;4.13;0.90;;;;;;;3.78;100.00;100849.50;4950441;29;20047;-68
2023/10/16 15:26:36;;;;;;;5.32;1.10;;;;;;;3.66;100.00;100846.94;4951151;29;20065;-68
2023/10/16 15:29:14;;;;;;;2.85;0.88;;;;;;;3.71;100.00;100840.31;4952988;28;20146;-68
2023/10/16 15:31:41;;;;;;;4.25;1.30;;;;;;;3.61;100.00;100839.28;4971398;28;20466;-68
2023/10/16 15:34:09;;;;;;;7.63;1.33;;;;;;;3.64;100.00;100831.09;4970712;28;20051;-68
2023/10/16 15:36:36;;;;;;;5.85;1.20;;;;;;;3.71;100.00;100834.16;4969974;28;20431;-68
2023/10/16 15:39:03;;;;;;;9.70;1.30;;;;;;;3.66;100.00;100845.13;4953429;28;20117;-68
2023/10/16 15:41:30;;;;;;;2.92;1.00;;;;;;;3.54;100.00;100838.03;4970174;28;20459;-68
2023/10/16 15:43:58;;;;;;;3.65;1.02;;;;;;;3.33;100.00;100825.38;4970311;28;20562;-68
2023/10/16 15:46:28;;;;;;;7.00;1.40;;;;;;;3.13;100.00;100799.44;4970477;28;20050;-68
2023/10/16 15:48:56;;;;;;;7.25;1.52;;;;;;;2.83;100.00;100766.25;4970288;28;20411;-68
2023/10/16 15:51:24;;;;;;;7.18;1.33;;;;;;;2.15;100.00;100679.25;4953136;28;20105;-68
2023/10/16 15:53:52;;;;;;;4.72;1.50;;;;;;;1.74;100.00;100632.66;4969413;28;20054;-68
2023/10/16 15:56:23;;;;;;;4.93;0.90;;;;;;;1.71;100.00;100627.59;4969892;28;20043;-68
2023/10/16 15:58:50;;;;;;;2.35;0.95;;;;;;;1.51;100.00;100609.59;4970250;28;20051;-68